Station NLXA2 - Nelson Lagoon, AK Image indicating link to RSS feed of recent meteorological observations for station NLXA2


Conditions at NLXA2 as of
(2:35 pm AKDT)
2235 GMT on 04/14/2024:
     

Click on the graph icon in the table below to see a time series plot of the last five days of that observation.

5-day plot - Wind Direction Wind Direction (WDIR):NNE ( 30 deg true )
5-day plot - Wind Speed Wind Speed (WSPD): 5.1 kts
5-day plot - Wind Gust Wind Gust (GST): 8.0 kts
5-day plot - Air Temperature Air Temperature (ATMP): 35.6 °F
5-day plot - Dew Point Dew Point (DEWP): 29.7 °F
5-day plot - Wind Chill Wind Chill (CHILL): 30.7 °F
5-day plot - Wind Speed at 10 Meters Wind Speed at 10 meters (WSPD10M): 5.8 kts
5-day plot - Wind Speed at 20 Meters Wind Speed at 20 meters (WSPD20M): 5.8 kts
5-day plot -  Wind Speed, Wind Gust and Atmospheric Pressure Combined plot of Wind Speed, Gust, and Air Pressure
Previous observations
TIME
(AKDT)
5-day plot - Wind Direction
WDIR
 
5-day plot - Wind Speed
WSPD
kts
5-day plot - Wind Gust
GST
kts
5-day plot - Wave Height
WVHT
ft
5-day plot - Dominant Wave Period
DPD
sec
5-day plot - Average Wave Period
APD
sec
5-day plot - Mean Wave Direction
MWD
 
5-day plot - Atmospheric Pressure
PRES
in
5-day plot - Pressure Tendency
PTDY
in
5-day plot - Air Temperature
ATMP
°F
5-day plot - Water Temperature
WTMP
°F
5-day plot - Dew Point
DEWP
°F
5-day plot - Salinity
SAL
psu
5-day plot - Visibility
VIS
nmi
5-day plot - Tide (above MLLW)
TIDE
ft
2024-04-14 02:25 pmNNE 5.1 7.0------ 35.2- 30.2---
2024-04-14 02:14 pmNNE 6.0 8.0------ 35.2- 30.4---
2024-04-14 02:05 pmNNE 6.0 8.0------ 35.1- 30.0---
2024-04-14 01:54 pmNNE 7.0 8.9------ 35.2- 30.2---
2024-04-14 01:45 pmNNE 8.0 9.9------ 35.2- 30.6---
2024-04-14 01:35 pmNNE 8.0 11.1------ 35.2- 30.4---
2024-04-14 01:24 pmNNE 7.0 9.9------ 35.4- 30.6---
2024-04-14 01:14 pmNNE 7.0 9.9------ 35.2- 30.6---
2024-04-14 01:04 pmNNE 7.0 8.9------ 35.2- 30.7---
2024-04-14 12:54 pmNNE 7.0 9.9------ 35.2- 30.7---
2024-04-14 12:44 pmNNE 6.0 8.9------ 35.1- 30.9---
2024-04-14 12:34 pm N 6.0 8.0------ 35.1- 30.9---
2024-04-14 12:24 pm N 4.1 7.0------ 35.2- 31.5---
2024-04-14 12:14 pmNNW 4.1 7.0------ 35.1- 31.6---
2024-04-14 12:05 pm NW 4.1 7.0------ 35.1- 31.6---
2024-04-14 11:54 am NW 5.1 9.9------ 35.1- 31.6---
2024-04-14 11:44 am NW 4.1 7.0------ 34.9- 31.5---
2024-04-14 11:35 amNNW 4.1 8.0------ 34.9- 31.6---
2024-04-14 11:24 am NW 5.1 7.0------ 34.9- 31.6---
2024-04-14 11:14 am N 2.9 5.1------ 35.1- 31.8---
2024-04-14 11:04 am N 2.9 5.1------ 34.9- 31.6---
2024-04-14 10:54 amNNW 2.9 6.0------ 34.9- 31.6---
2024-04-14 10:44 amNNW 4.1 7.0------ 34.7- 31.5---
2024-04-14 10:34 amNNW 5.1 8.0------ 34.5- 31.3---
2024-04-14 10:24 amNNW 4.1 7.0------ 34.3- 31.1---
2024-04-14 10:14 am N 4.1 7.0------ 34.3- 31.1---
2024-04-14 10:04 amNNW 4.1 7.0------ 34.3- 30.9---
2024-04-14 09:54 amNNW 2.9 6.0------ 34.3- 30.9---
2024-04-14 09:44 am N 4.1 7.0------ 34.3- 30.9---
2024-04-14 09:34 amNNW 5.1 8.0------ 34.2- 30.6---
2024-04-14 09:25 amNNW 6.0 8.9------ 34.0- 30.4---
2024-04-14 09:19 am NW 7.0 11.1------ 34.2- 31.1---
2024-04-14 09:14 am NW 7.0 11.1------ 34.2- 31.1---
2024-04-14 08:55 am NW 8.0 11.1------ 34.2- 30.7---
2024-04-14 08:45 am NW 8.0 12.0------ 34.2- 30.7---
2024-04-14 08:35 amWNW 8.0 12.0------ 34.2- 30.6---
2024-04-14 08:25 amWNW 7.0 12.0------ 34.0- 30.4---
2024-04-14 08:14 amWNW 8.0 12.0------ 34.0- 30.6---
2024-04-14 08:04 amWNW 8.9 14.0------ 34.0- 30.6---
2024-04-14 07:54 amWNW 8.0 13.0------ 34.0- 30.6---
2024-04-14 07:44 amWNW 8.0 13.0------ 33.6- 30.2---
2024-04-14 07:34 amWNW 9.9 15.9------ 33.3- 29.7---
2024-04-14 07:24 amWNW 14.0 22.0------ 32.9- 29.3---
2024-04-14 07:14 amWNW 13.0 21.0------ 32.9- 29.1---
2024-04-14 07:04 amWNW 14.0 20.0------ 33.4- 29.5---
2024-04-14 06:54 amWNW 14.0 21.0------ 33.8- 29.3---
2024-04-14 06:44 amWNW 13.0 18.1------ 33.8- 29.1---
2024-04-14 06:34 amWNW 12.0 17.1------ 33.6- 28.9---
2024-04-14 06:24 amWNW 13.0 17.1------ 33.6- 28.8---
2024-04-14 06:14 amWNW 14.0 18.1------ 33.4- 28.2---
2024-04-14 06:04 amWNW 13.0 17.1------ 33.4- 28.0---
2024-04-14 05:55 amWNW 12.0 17.1------ 33.3- 28.0---
2024-04-14 05:45 amWNW 12.0 17.1------ 33.3- 27.9---
2024-04-14 05:34 amWNW 12.0 17.1------ 33.3- 27.7---
2024-04-14 05:25 amWNW 11.1 15.9------ 33.3- 27.5---
2024-04-14 05:14 amWNW 12.0 15.9------ 33.3- 27.1---
2024-04-14 05:04 amWNW 12.0 15.9------ 33.3- 27.1---
2024-04-14 04:54 amWNW 12.0 17.1------ 33.1- 27.0---
2024-04-14 04:44 amWNW 11.1 15.9------ 33.1- 27.0---
2024-04-14 04:34 amWNW 11.1 15.9------ 33.1- 26.6---
2024-04-14 04:24 amWNW 11.1 15.9------ 32.9- 26.4---
2024-04-14 04:14 amWNW 9.9 14.0------ 32.9- 26.2---
2024-04-14 04:04 amWNW 9.9 15.0------ 32.9- 26.1---
2024-04-14 03:54 amWNW 8.0 13.0------ 32.7- 26.2---
2024-04-14 03:44 amWNW 8.9 13.0------ 32.7- 25.9---
2024-04-14 03:34 amWNW 8.0 12.0------ 32.7- 25.7---
2024-04-14 03:24 amWNW 8.0 14.0------ 32.5- 25.3---
2024-04-14 03:14 am NW 8.9 12.0------ 32.5- 25.3---
2024-04-14 03:04 am NW 8.9 13.0------ 32.4- 24.8---
2024-04-14 02:54 am NW 8.0 12.0------ 32.4- 24.4---
2024-04-14 02:44 am NW 8.0 12.0------ 32.2- 24.4---
2024-04-14 02:34 am NW 8.0 14.0------ 32.2- 24.1---
2024-04-14 02:24 am NW 8.0 12.0------ 32.2- 23.9---
2024-04-14 02:14 amNNW 8.0 14.0------ 32.2- 23.9---
2024-04-14 02:04 amNNW 8.9 15.9------ 32.2- 23.9---
2024-04-14 01:54 amNNW 8.0 14.0------ 32.2- 24.3---
2024-04-14 01:44 amNNW 8.9 14.0------ 32.0- 24.1---
2024-04-14 01:34 amNNW 8.0 14.0------ 32.0- 23.9---
2024-04-14 01:24 amNNW 8.9 14.0------ 32.0- 23.4---
2024-04-14 01:14 amNNW 8.9 14.0------ 32.0- 23.2---
2024-04-14 01:04 amNNW 8.9 15.0------ 32.0- 22.8---
2024-04-14 12:54 amNNW 8.9 15.0------ 32.0- 22.8---
2024-04-14 12:34 amNNW 8.9 15.9------ 32.0- 22.5---
2024-04-14 12:24 amNNW 9.9 15.9------ 32.0- 22.6---
2024-04-14 12:16 amNNW 9.9 15.9------ 32.0- 23.0---
2024-04-14 12:05 amNNW 8.9 15.0------ 32.0- 23.0---
2024-04-13 11:55 pmNNW 9.9 15.9------ 32.0- 23.4---
2024-04-13 11:44 pm N 9.9 15.9------ 32.0- 22.1---
2024-04-13 11:34 pmNNW 11.1 19.0------ 32.0- 22.6---
2024-04-13 11:24 pm N 9.9 15.0------ 31.8- 23.0---
2024-04-13 11:14 pm N 12.0 18.1------ 31.8- 22.5---
2024-04-13 11:04 pmNNW 9.9 18.1------ 31.8- 22.3---
2024-04-13 10:54 pmNNW 12.0 21.0------ 31.8- 22.1---
2024-04-13 10:44 pmNNW 12.0 19.0------ 31.8- 23.0---
2024-04-13 10:34 pmNNW 13.0 21.0------ 31.8- 23.2---
2024-04-13 10:24 pmNNW 13.0 19.0------ 31.6- 23.2---
2024-04-13 10:14 pmNNW 12.0 21.0------ 31.5- 22.3---
2024-04-13 10:04 pmNNW 13.0 22.0------ 31.6- 23.0---
2024-04-13 09:54 pmNNW 14.0 22.0------ 31.6- 22.5---
2024-04-13 09:44 pmNNW 15.0 22.9------ 31.6- 22.3---
2024-04-13 09:34 pmNNW 15.0 22.0------ 31.6- 22.5---
2024-04-13 09:24 pmNNW 13.0 19.0------ 31.5- 22.8---
2024-04-13 09:15 pmNNW 14.0 20.0------ 31.3- 22.6---
2024-04-13 09:04 pmNNW 14.0 22.0------ 31.5- 22.1---
2024-04-13 08:54 pmNNW 13.0 22.0------ 31.8- 22.6---
2024-04-13 08:45 pmNNW 13.0 21.0------ 32.0- 23.4---
2024-04-13 08:35 pmNNW 12.0 20.0------ 32.0- 23.7---
2024-04-13 08:24 pmNNW 13.0 20.0------ 32.0- 23.5---
2024-04-13 08:15 pmNNW 12.0 20.0------ 32.5- 23.9---
2024-04-13 08:05 pmNNW 13.0 20.0------ 32.4- 23.4---
2024-04-13 07:54 pmNNW 12.0 20.0------ 32.5- 23.4---
2024-04-13 07:44 pm NW 13.0 22.0------ 32.5- 23.0---
2024-04-13 07:34 pmNNW 12.0 21.0------ 32.5- 23.5---
2024-04-13 07:24 pm NW 14.0 21.0------ 32.4- 23.4---
2024-04-13 07:14 pmNNW 13.0 20.0------ 32.5- 23.2---
2024-04-13 07:04 pmNNW 12.0 20.0------ 32.9- 23.7---
2024-04-13 06:54 pm NW 14.0 22.0------ 32.5- 23.7---
2024-04-13 06:44 pmNNW 13.0 21.0------ 33.1- 24.1---
2024-04-13 06:34 pmNNW 14.0 22.0------ 33.1- 23.9---
2024-04-13 06:24 pm NW 15.0 22.0------ 33.3- 24.1---
2024-04-13 06:14 pmNNW 14.0 24.1------ 33.3- 24.1---
2024-04-13 06:04 pm NW 15.0 24.1------ 33.1- 23.7---
2024-04-13 05:55 pm NW 14.0 22.9------ 33.3- 23.9---
2024-04-13 05:44 pmNNW 14.0 24.1------ 32.9- 23.9---
2024-04-13 05:34 pmNNW 15.0 25.1------ 32.9- 23.7---
2024-04-13 05:24 pm NW 15.0 22.9------ 33.4- 23.9---
2024-04-13 05:14 pmNNW 13.0 22.9------ 32.9- 23.4---
2024-04-13 05:04 pmNNW 13.0 21.0------ 32.9- 23.5---
2024-04-13 04:54 pmNNW 15.0 22.9------ 32.9- 23.2---
2024-04-13 04:44 pmNNW 15.0 22.9------ 32.9- 23.0---
2024-04-13 04:34 pm NW 15.9 26.0------ 32.7- 22.6---
2024-04-13 04:24 pmNNW 15.0 24.1------ 32.9- 23.0---
2024-04-13 04:14 pmNNW 14.0 22.9------ 33.1- 22.6---
2024-04-13 03:55 pmNNW 15.0 25.1------ 32.7- 21.7---
2024-04-13 03:44 pmNNW 15.9 25.1------ 32.5- 21.6---
2024-04-13 03:35 pmNNW 17.1 26.0------ 32.4- 22.8---
2024-04-13 03:24 pmNNW 15.9 27.0------ 32.5- 22.8---
2024-04-13 03:14 pmNNW 15.9 27.0------ 32.4- 22.3---
2024-04-13 03:04 pmNNW 17.1 28.0------ 32.2- 22.3---
2024-04-13 02:54 pmNNW 17.1 27.0------ 32.2- 23.0---
2024-04-13 02:44 pmNNW 17.1 25.1------ 32.0- 22.6---
2024-04-13 02:34 pmNNW 15.9 27.0------ 32.2- 23.2---
2024-04-13 02:25 pmNNW 15.9 25.1------ 31.8- 23.7---
2024-04-13 02:14 pmNNW 15.9 25.1------ 32.0- 23.4---
2024-04-13 02:04 pmNNW 15.9 26.0------ 31.8- 23.2---
2024-04-13 01:54 pmNNW 18.1 27.0------ 31.6- 22.8---